Time;durP1;ratioP1;P1;durP2;ratioP2;P2;SDS_P1;SDS_P2;PMS_P1;PMS_P2;Temp;Humidity;BMP_temperature;BMP_pressure;BME280_temperature;BME280_humidity;BME280_pressure;Samples;Min_cycle;Max_cycle;Signal;HPM_P1;HPM_P2
2022/05/20 00:01:12;;;;;;;54.33;41.67;;;16.10;99.90;;;;;;5075637;28;20502;-69
2022/05/20 00:03:38;;;;;;;57.55;38.95;;;16.00;99.90;;;;;;5074448;28;20025;-69
2022/05/20 00:06:04;;;;;;;52.67;39.72;;;15.90;99.90;;;;;;5074185;28;20551;-69
2022/05/20 00:08:31;;;;;;;58.10;40.03;;;15.80;99.90;;;;;;5074353;28;20064;-69
2022/05/20 00:10:56;;;;;;;54.75;39.67;;;15.80;99.90;;;;;;5075402;28;20048;-69
2022/05/20 00:13:24;;;;;;;54.63;39.75;;;15.70;99.90;;;;;;5075327;28;20061;-69
2022/05/20 00:15:50;;;;;;;56.08;39.83;;;15.70;99.90;;;;;;5057311;28;20024;-69
2022/05/20 00:18:15;;;;;;;54.45;40.58;;;15.70;99.90;;;;;;5073979;28;20024;-69
2022/05/20 00:20:41;;;;;;;55.08;37.65;;;15.60;99.90;;;;;;5075463;28;20025;-69
2022/05/20 00:23:07;;;;;;;55.45;38.05;;;15.60;99.90;;;;;;5073968;28;20064;-69
2022/05/20 00:25:47;;;;;;;54.83;37.85;;;15.50;99.90;;;;;;5073709;28;20182;-69
2022/05/20 00:28:16;;;;;;;55.25;37.33;;;14.50;99.90;;;;;;5075057;28;20494;-69
2022/05/20 00:30:42;;;;;;;55.67;36.95;;;15.50;99.90;;;;;;5073817;28;20050;-69
2022/05/20 00:33:08;;;;;;;54.15;36.30;;;15.40;99.90;;;;;;5057099;28;20021;-69
2022/05/20 00:35:33;;;;;;;49.65;35.90;;;15.40;99.90;;;;;;5073741;28;20027;-69
2022/05/20 00:37:59;;;;;;;53.75;35.80;;;15.40;99.90;;;;;;5074867;28;20024;-69
2022/05/20 00:40:27;;;;;;;52.13;36.22;;;15.40;99.90;;;;;;5073971;28;20055;-69
2022/05/20 00:43:07;;;;;;;52.20;35.80;;;15.40;99.90;;;;;;5056845;28;20032;-69
2022/05/20 00:45:33;;;;;;;59.13;37.97;;;15.30;99.90;;;;;;5074677;28;20059;-69
2022/05/20 00:47:58;;;;;;;62.00;37.90;;;15.20;99.90;;;;;;5074626;28;20020;-69
2022/05/20 00:50:24;;;;;;;53.75;35.95;;;15.20;99.90;;;;;;5073452;28;20491;-69
2022/05/20 00:52:50;;;;;;;57.28;38.45;;;15.20;99.90;;;;;;5073426;28;20048;-69
2022/05/20 00:55:21;;;;;;;55.25;37.00;;;15.10;99.90;;;;;;5073346;28;20028;-69
2022/05/20 00:57:55;;;;;;;56.33;37.90;;;15.00;99.90;;;;;;5073553;28;20028;-69
2022/05/20 01:00:25;;;;;;;60.15;36.60;;;14.90;99.90;;;;;;5073169;28;20024;-69
2022/05/20 01:02:56;;;;;;;61.00;37.08;;;14.80;99.90;;;;;;5073210;28;20085;-69
2022/05/20 01:05:27;;;;;;;55.78;36.47;;;14.70;99.90;;;;;;5074210;28;20032;-69
2022/05/20 01:07:54;;;;;;;57.47;37.42;;;14.60;99.90;;;;;;5074288;28;20025;-69
2022/05/20 01:10:20;;;;;;;64.00;40.28;;;14.50;99.90;;;;;;5073660;28;20431;-70
2022/05/20 01:12:48;;;;;;;62.35;41.65;;;14.40;99.90;;;;;;5073177;28;20087;-69
2022/05/20 01:15:13;;;;;;;58.97;39.88;;;14.40;99.90;;;;;;5074114;28;20016;-69
2022/05/20 01:17:39;;;;;;;67.88;41.90;;;14.30;99.90;;;;;;5074149;28;20036;-69
2022/05/20 01:20:11;;;;;;;67.97;44.05;;;14.30;99.90;;;;;;5073980;28;20035;-69
2022/05/20 01:22:47;;;;;;;72.97;43.67;;;14.30;99.90;;;;;;5056474;28;20098;-69
2022/05/20 01:25:12;;;;;;;71.40;44.80;;;14.20;99.90;;;;;;5073638;28;20041;-69
2022/05/20 01:27:42;;;;;;;78.03;45.33;;;14.10;99.90;;;;;;5072738;28;20027;-69
2022/05/20 01:30:10;;;;;;;58.70;38.88;;;14.10;99.90;;;;;;5074063;28;20028;-69
2022/05/20 01:32:36;;;;;;;63.60;39.67;;;14.00;99.90;;;;;;5072603;28;20020;-69
2022/05/20 01:35:04;;;;;;;55.40;38.22;;;13.90;99.90;;;;;;5073745;28;20036;-69
2022/05/20 01:37:30;;;;;;;62.03;38.90;;;13.80;99.90;;;;;;5072480;28;20111;-69
2022/05/20 01:39:58;;;;;;;61.72;40.60;;;13.70;99.90;;;;;;5072359;28;20486;-69
2022/05/20 01:42:30;;;;;;;60.30;38.88;;;13.60;99.90;;;;;;5073608;28;20031;-70
2022/05/20 01:45:01;;;;;;;61.97;37.92;;;13.50;99.90;;;;;;5073509;28;20474;-69
2022/05/20 01:47:33;;;;;;;65.00;40.45;;;13.50;99.90;;;;;;5073505;28;20027;-70
2022/05/20 01:52:55;;;;;;;68.63;42.75;;;13.50;99.90;;;;;;5090698;27;20879;-69
2022/05/20 01:58:12;;;;;;;71.80;43.67;;;13.30;99.90;;;;;;5070645;28;20349;-70
2022/05/20 02:00:41;;;;;;;71.80;45.00;;;13.20;99.90;;;;;;5069221;28;20029;-70
2022/05/20 02:03:17;;;;;;;65.55;40.80;;;13.10;99.90;;;;;;5069316;28;20480;-70
2022/05/20 02:05:50;;;;;;;79.80;45.45;;;13.10;99.90;;;;;;5069111;28;20115;-70
2022/05/20 02:08:23;;;;;;;74.47;46.53;;;13.10;99.90;;;;;;5070373;28;20021;-70
2022/05/20 02:11:04;;;;;;;77.57;45.90;;;13.10;99.90;;;;;;5070317;28;20475;-70
2022/05/20 02:13:34;;;;;;;76.85;44.58;;;13.00;99.90;;;;;;5070375;28;20438;-70
2022/05/20 02:16:07;;;;;;;73.35;45.78;;;12.90;99.90;;;;;;5070267;28;20047;-70
2022/05/20 02:18:37;;;;;;;;;;;12.90;99.90;;;;;;5053522;28;20047;-70
2022/05/20 02:21:08;;;;;;;84.10;45.85;;;12.80;99.90;;;;;;5068837;28;19908;-70
2022/05/20 02:23:40;;;;;;;80.25;44.85;;;12.80;99.90;;;;;;5068859;28;20074;-70
2022/05/20 02:26:12;;;;;;;84.05;46.65;;;12.80;99.90;;;;;;5068810;28;20542;-70
2022/05/20 02:28:41;;;;;;;77.25;45.42;;;12.70;99.90;;;;;;5070034;28;20441;-70
2022/05/20 02:31:13;;;;;;;75.78;45.22;;;12.70;99.90;;;;;;5068596;28;20027;-71
2022/05/20 02:33:39;;;;;;;76.65;44.33;;;12.70;99.90;;;;;;5068548;28;20074;-70
2022/05/20 02:36:08;;;;;;;74.00;45.33;;;12.70;99.90;;;;;;5051991;28;20032;-70
2022/05/20 02:38:34;;;;;;;82.70;46.83;;;12.70;99.90;;;;;;5068618;28;20475;-70
2022/05/20 02:40:59;;;;;;;79.43;47.33;;;12.70;99.90;;;;;;5068606;28;20454;-70
2022/05/20 02:43:25;;;;;;;70.72;44.70;;;12.70;99.90;;;;;;5068490;28;20044;-70
2022/05/20 02:45:52;;;;;;;75.68;44.85;;;12.60;99.90;;;;;;5068695;28;20029;-70
2022/05/20 02:48:20;;;;;;;73.10;43.50;;;12.60;99.90;;;;;;5068395;28;20515;-70
2022/05/20 02:50:46;;;;;;;70.30;41.88;;;12.60;99.90;;;;;;5068180;28;20078;-70
2022/05/20 02:53:12;;;;;;;82.00;50.33;;;12.60;99.90;;;;;;5068140;28;20016;-70
2022/05/20 02:55:38;;;;;;;78.63;45.92;;;12.60;99.90;;;;;;5068012;28;20031;-70
2022/05/20 02:58:04;;;;;;;84.45;49.45;;;12.60;99.90;;;;;;5069371;28;20017;-70
2022/05/20 03:06:01;;;;;;;92.57;50.35;;;12.60;99.90;;;;;;5068939;28;20021;-70
2022/05/20 03:08:27;;;;;;;94.82;50.67;;;12.60;99.90;;;;;;5059762;28;20086;-70
2022/05/20 03:10:52;;;;;;;78.85;47.88;;;12.50;99.90;;;;;;5055904;28;20079;-70
2022/05/20 03:13:19;;;;;;;84.75;48.65;;;12.50;99.90;;;;;;5055875;28;20438;-70
2022/05/20 03:15:45;;;;;;;84.78;48.00;;;12.40;99.90;;;;;;5055775;28;20021;-70
2022/05/20 03:18:12;;;;;;;85.35;46.72;;;12.50;99.90;;;;;;5055753;28;20507;-71
2022/05/20 03:20:38;;;;;;;74.38;43.63;;;12.50;99.90;;;;;;5054496;28;20017;-70
2022/05/20 03:23:05;;;;;;;88.80;50.92;;;12.50;99.90;;;;;;5055707;28;20017;-70
2022/05/20 03:25:31;;;;;;;93.53;52.22;;;12.40;99.90;;;;;;5055709;28;20032;-70
2022/05/20 03:27:57;;;;;;;93.32;53.35;;;12.40;99.90;;;;;;5054568;28;20471;-70
2022/05/20 03:30:23;;;;;;;78.20;47.88;;;12.40;99.90;;;;;;5037614;28;20167;-70
2022/05/20 03:32:48;;;;;;;86.88;50.42;;;12.50;99.90;;;;;;5055723;28;20104;-70
2022/05/20 03:35:14;;;;;;;97.32;53.63;;;12.50;99.90;;;;;;5055444;28;20033;-70
2022/05/20 03:37:39;;;;;;;94.20;52.83;;;12.50;99.90;;;;;;5055451;28;20505;-70
2022/05/20 03:40:05;;;;;;;92.55;51.67;;;12.50;99.90;;;;;;5055411;28;20036;-70
2022/05/20 03:42:31;;;;;;;85.95;51.30;;;12.60;99.90;;;;;;5055357;28;20036;-70
2022/05/20 03:44:57;;;;;;;91.82;51.53;;;12.60;99.90;;;;;;5053993;28;20369;-71
2022/05/20 03:47:22;;;;;;;96.25;55.47;;;12.60;99.90;;;;;;5055169;28;20527;-70
2022/05/20 03:49:48;;;;;;;104.35;55.90;;;12.70;99.90;;;;;;5055166;28;20033;-70
2022/05/20 03:52:14;;;;;;;95.35;54.28;;;12.80;99.90;;;;;;5055374;28;20441;-70
2022/05/20 03:54:40;;;;;;;91.45;52.90;;;12.90;99.90;;;;;;5055315;28;20489;-70
2022/05/20 03:57:06;;;;;;;88.88;52.30;;;12.90;99.90;;;;;;5054818;28;20495;-71
2022/05/20 03:59:35;;;;;;;91.20;51.67;;;12.90;99.90;;;;;;5055029;28;20091;-70
2022/05/20 04:02:02;;;;;;;77.50;48.90;;;12.90;99.90;;;;;;5053691;28;20031;-70
2022/05/20 04:04:34;;;;;;;78.63;48.80;;;13.00;99.90;;;;;;5054802;28;20498;-70
2022/05/20 04:07:02;;;;;;;86.10;50.23;;;13.00;99.90;;;;;;5054978;28;20036;-70
2022/05/20 04:09:28;;;;;;;84.38;48.97;;;13.10;99.90;;;;;;5053599;28;20053;-70
2022/05/20 04:11:57;;;;;;;83.30;50.33;;;13.20;99.90;;;;;;5054736;28;20064;-70
2022/05/20 04:14:25;;;;;;;83.20;50.60;;;13.30;99.90;;;;;;5053866;28;20178;-70
2022/05/20 04:16:55;;;;;;;82.65;49.60;;;13.50;99.90;;;;;;5053346;28;20033;-70
2022/05/20 04:19:22;;;;;;;84.82;49.05;;;13.50;99.90;;;;;;5053718;28;20013;-70
2022/05/20 04:21:49;;;;;;;77.30;50.20;;;13.60;99.90;;;;;;5054490;28;20475;-70
2022/05/20 04:24:14;;;;;;;75.28;46.45;;;13.70;99.90;;;;;;5053171;28;20032;-70
2022/05/20 04:26:40;;;;;;;69.70;43.97;;;13.70;99.90;;;;;;5054519;28;20033;-69
2022/05/20 04:29:05;;;;;;;65.28;42.17;;;13.90;99.90;;;;;;5053166;28;20092;-69
2022/05/20 04:31:31;;;;;;;58.75;40.53;;;13.90;99.90;;;;;;5053163;28;20151;-70
2022/05/20 04:33:56;;;;;;;61.17;41.60;;;14.30;99.90;;;;;;5054323;28;20512;-70
2022/05/20 04:36:22;;;;;;;45.88;34.35;;;14.90;99.90;;;;;;5052992;28;20028;-69
2022/05/20 04:38:47;;;;;;;49.90;37.28;;;15.30;99.90;;;;;;5054518;28;20391;-70
2022/05/20 04:46:59;;;;;;;44.83;33.08;;;16.40;99.90;;;;;;5053009;28;20063;-69
2022/05/20 04:49:27;;;;;;;43.03;31.48;;;17.10;99.90;;;;;;5052775;28;20128;-69
2022/05/20 04:51:52;;;;;;;36.45;27.70;;;17.60;99.90;;;;;;5053919;28;20033;-70
2022/05/20 04:54:49;;;;;;;37.88;28.25;;;17.70;99.90;;;;;;5054192;28;20364;-70
2022/05/20 04:57:04;;;;;;;38.47;28.30;;;17.70;99.90;;;;;;5053425;28;20041;-70
2022/05/20 04:59:35;;;;;;;36.90;25.77;;;18.00;99.90;;;;;;5052556;28;20387;-70
2022/05/20 05:02:00;;;;;;;35.03;26.48;;;18.00;99.90;;;;;;5054075;28;20021;-70
2022/05/20 05:04:26;;;;;;;32.55;25.95;;;18.00;99.90;;;;;;5053706;28;20021;-70
2022/05/20 05:06:52;;;;;;;36.92;27.17;;;17.60;99.90;;;;;;5053961;28;20029;-70
2022/05/20 05:09:18;;;;;;;36.67;27.55;;;17.20;99.90;;;;;;5053881;28;20086;-70
2022/05/20 05:11:44;;;;;;;35.63;27.25;;;17.00;99.90;;;;;;5053611;28;20024;-70
2022/05/20 05:14:12;;;;;;;36.88;27.48;;;16.70;99.90;;;;;;5053610;28;20112;-70
2022/05/20 05:16:38;;;;;;;38.75;26.80;;;16.40;99.90;;;;;;5053670;28;20024;-70
2022/05/20 05:19:04;;;;;;;40.35;28.73;;;16.10;99.90;;;;;;5053483;28;20025;-69
2022/05/20 05:21:30;;;;;;;38.97;27.73;;;16.10;99.90;;;;;;5052165;28;20489;-69
2022/05/20 05:24:00;;;;;;;39.85;27.35;;;16.20;99.90;;;;;;5052128;28;20023;-70
2022/05/20 05:26:26;;;;;;;36.88;26.25;;;16.70;99.90;;;;;;5053360;28;20032;-69
2022/05/20 05:28:52;;;;;;;35.65;24.08;;;17.30;99.90;;;;;;5053280;28;20112;-70
2022/05/20 05:31:17;;;;;;;28.55;22.38;;;17.90;99.90;;;;;;5051723;28;20450;-70
2022/05/20 05:33:43;;;;;;;33.65;25.08;;;18.20;99.90;;;;;;5053351;28;20035;-70
2022/05/20 05:36:09;;;;;;;27.13;22.13;;;18.60;99.90;;;;;;5053402;28;20025;-69
2022/05/20 05:38:34;;;;;;;29.13;21.00;;;18.90;99.90;;;;;;5053260;28;20021;-69
2022/05/20 05:41:00;;;;;;;26.35;20.25;;;19.10;99.90;;;;;;5053451;28;20071;-69
2022/05/20 05:43:26;;;;;;;29.10;20.85;;;19.40;99.90;;;;;;5053132;28;20387;-69
2022/05/20 05:45:52;;;;;;;27.77;20.83;;;20.40;99.90;;;;;;5051937;28;20017;-67
2022/05/20 05:48:17;;;;;;;26.73;20.05;;;20.70;99.90;;;;;;5051862;28;20448;-67
2022/05/20 05:50:44;;;;;;;25.98;18.73;;;20.50;99.90;;;;;;5053296;28;20112;-67
2022/05/20 05:53:13;;;;;;;23.65;18.40;;;20.20;99.90;;;;;;5053066;28;20121;-67
2022/05/20 05:55:40;;;;;;;26.33;18.23;;;20.50;99.90;;;;;;5051525;28;20048;-67
2022/05/20 05:58:06;;;;;;;22.15;17.02;;;20.50;99.90;;;;;;5053088;28;20426;-67
2022/05/20 06:00:32;;;;;;;23.27;19.05;;;20.70;99.90;;;;;;5051762;28;20395;-69
2022/05/20 06:02:57;;;;;;;24.98;18.52;;;20.80;99.90;;;;;;5052123;28;20021;-70
2022/05/20 06:05:23;;;;;;;24.13;18.58;;;20.90;99.90;;;;;;5053638;28;20025;-70
2022/05/20 06:07:51;;;;;;;25.77;18.55;;;20.80;99.90;;;;;;5065978;28;20048;-69
2022/05/20 06:10:17;;;;;;;22.75;17.70;;;21.10;99.90;;;;;;5059903;28;20089;-70
2022/05/20 06:12:43;;;;;;;20.80;17.05;;;21.90;99.90;;;;;;5070502;28;20035;-70
2022/05/20 06:15:14;;;;;;;22.35;16.92;;;22.90;99.90;;;;;;5071019;28;20543;-70
2022/05/20 06:17:40;;;;;;;19.58;16.75;;;22.70;99.90;;;;;;5053949;28;20128;-70
2022/05/20 06:20:06;;;;;;;19.80;16.40;;;22.70;99.90;;;;;;5071866;28;20080;-70
2022/05/20 06:22:32;;;;;;;19.83;17.10;;;22.90;99.90;;;;;;5070566;28;20025;-69
2022/05/20 06:24:57;;;;;;;21.77;16.27;;;22.90;99.90;;;;;;5071800;28;20033;-69
2022/05/20 06:27:23;;;;;;;22.73;17.77;;;23.70;99.90;;;;;;5071769;28;20033;-67
2022/05/20 06:29:50;;;;;;;19.17;16.17;;;24.40;99.90;;;;;;5070440;28;20024;-67
2022/05/20 06:32:16;;;;;;;20.70;17.65;;;23.90;99.90;;;;;;5070543;28;20020;-69
2022/05/20 06:40:18;;;;;;;20.67;16.92;;;22.90;99.90;;;;;;5049008;28;20013;-70
2022/05/20 06:42:44;;;;;;;20.52;16.58;;;23.60;99.90;;;;;;5041359;28;20029;-69
2022/05/20 06:45:12;;;;;;;21.33;16.38;;;24.10;99.90;;;;;;5055495;28;20044;-69
2022/05/20 06:47:39;;;;;;;21.42;17.38;;;24.70;99.90;;;;;;5055546;28;20428;-69
2022/05/20 06:50:07;;;;;;;18.20;15.57;;;25.50;99.90;;;;;;5054683;28;20056;-69
2022/05/20 06:52:33;;;;;;;18.73;15.05;;;25.10;99.90;;;;;;5033989;28;20037;-70
2022/05/20 06:54:58;;;;;;;19.55;15.93;;;24.90;99.90;;;;;;5054474;28;20033;-69
2022/05/20 06:57:24;;;;;;;21.65;15.80;;;24.70;99.90;;;;;;5054130;28;20041;-70
2022/05/20 06:59:51;;;;;;;23.90;16.20;;;24.10;99.90;;;;;;5037723;28;20030;-69
2022/05/20 07:02:17;;;;;;;21.83;16.20;;;23.80;99.90;;;;;;5049781;28;20075;-67
2022/05/20 07:04:42;;;;;;;18.02;16.10;;;23.80;99.90;;;;;;5042455;28;20348;-68
2022/05/20 07:07:08;;;;;;;20.00;17.95;;;24.60;99.90;;;;;;5040945;28;20037;-67
2022/05/20 07:09:34;;;;;;;19.90;17.52;;;26.00;99.90;;;;;;5048873;28;20033;-70
2022/05/20 07:12:00;;;;;;;19.77;16.90;;;24.90;99.90;;;;;;5037142;28;20144;-69
2022/05/20 07:14:27;;;;;;;19.45;16.98;;;24.40;99.90;;;;;;5053377;28;20029;-69
2022/05/20 07:16:52;;;;;;;18.80;15.98;;;25.20;99.90;;;;;;5051286;28;20039;-70
2022/05/20 07:19:18;;;;;;;19.98;14.57;;;26.20;99.90;;;;;;5039593;28;20140;-69
2022/05/20 07:21:43;;;;;;;16.38;14.10;;;27.40;98.10;;;;;;5034639;28;20017;-68
2022/05/20 07:24:09;;;;;;;16.13;14.40;;;27.30;96.20;;;;;;5048879;28;20025;-67
2022/05/20 07:26:36;;;;;;;17.67;15.77;;;26.30;96.20;;;;;;5054715;28;20481;-68
2022/05/20 07:29:04;;;;;;;18.90;15.90;;;26.50;96.30;;;;;;5040469;28;20029;-68
2022/05/20 07:31:29;;;;;;;20.67;16.58;;;26.40;96.20;;;;;;5034436;28;20028;-68
2022/05/20 07:33:55;;;;;;;19.85;16.08;;;26.10;96.90;;;;;;5046272;28;20033;-68
2022/05/20 07:36:21;;;;;;;16.23;14.10;;;25.70;97.50;;;;;;5049936;28;20128;-68
2022/05/20 07:38:47;;;;;;;15.40;12.18;;;26.20;95.30;;;;;;5052555;28;20045;-69
2022/05/20 07:41:13;;;;;;;17.77;13.75;;;27.50;92.40;;;;;;5052009;28;20066;-67
2022/05/20 07:43:42;;;;;;;14.35;12.50;;;28.20;89.60;;;;;;5054221;28;20071;-69
2022/05/20 07:46:07;;;;;;;18.02;13.25;;;27.20;90.00;;;;;;5051640;28;20032;-69
2022/05/20 07:48:33;;;;;;;14.07;12.52;;;27.20;90.00;;;;;;5054250;28;20052;-67
2022/05/20 07:51:02;;;;;;;17.75;13.20;;;27.60;89.80;;;;;;5054015;28;20033;-69
2022/05/20 07:53:33;;;;;;;18.50;14.45;;;28.10;87.30;;;;;;5050141;28;20400;-68
2022/05/20 07:56:05;;;;;;;17.02;14.00;;;28.60;88.70;;;;;;5053631;28;20226;-68
2022/05/20 07:58:35;;;;;;;17.08;13.75;;;27.90;85.80;;;;;;5052607;28;20101;-68
2022/05/20 08:01:02;;;;;;;17.27;15.32;;;28.10;83.70;;;;;;5052781;28;20032;-69
2022/05/20 08:06:15;;;;;;;16.23;13.35;;;27.40;87.30;;;;;;5044557;28;20415;-69
2022/05/20 08:08:41;;;;;;;17.65;12.10;;;27.60;91.50;;;;;;5044336;28;20033;-69
2022/05/20 08:11:08;;;;;;;12.25;10.93;;;27.70;83.90;;;;;;5037268;28;20476;-68
2022/05/20 08:13:34;;;;;;;17.08;10.55;;;28.70;78.10;;;;;;5046363;28;20544;-68
2022/05/20 08:15:59;;;;;;;15.25;12.18;;;27.70;86.20;;;;;;5052127;28;20029;-68
2022/05/20 08:18:25;;;;;;;12.75;8.32;;;28.30;80.60;;;;;;5038464;28;20032;-69
2022/05/20 08:20:51;;;;;;;9.85;8.43;;;28.80;71.70;;;;;;5044760;28;20505;-68
2022/05/20 08:23:17;;;;;;;14.13;8.63;;;28.10;73.00;;;;;;5037170;28;20035;-68
2022/05/20 08:25:42;;;;;;;15.23;10.45;;;27.70;74.60;;;;;;5042115;28;20153;-68
2022/05/20 08:28:08;;;;;;;17.13;11.15;;;27.40;77.00;;;;;;5037727;28;20517;-68
2022/05/20 08:30:34;;;;;;;14.85;11.13;;;27.10;81.10;;;;;;5053081;28;20108;-68
2022/05/20 08:32:59;;;;;;;12.73;9.95;;;28.30;78.60;;;;;;5048568;28;20549;-68
2022/05/20 08:35:27;;;;;;;12.38;10.00;;;27.40;80.50;;;;;;5054147;28;20391;-68
2022/05/20 08:37:53;;;;;;;14.35;10.98;;;27.40;82.10;;;;;;5036857;28;20159;-68
2022/05/20 08:40:27;;;;;;;16.70;11.90;;;26.90;84.20;;;;;;5046720;28;20149;-68
2022/05/20 08:42:55;;;;;;;13.93;11.30;;;26.50;87.60;;;;;;5052913;28;20055;-68
2022/05/20 08:45:25;;;;;;;13.35;11.65;;;26.90;88.30;;;;;;5034112;28;20025;-68
2022/05/20 08:47:52;;;;;;;16.67;12.35;;;26.70;90.60;;;;;;5039073;28;20528;-68
2022/05/20 08:50:37;;;;;;;16.17;13.60;;;26.70;89.80;;;;;;5034269;28;20037;-68
2022/05/20 08:53:06;;;;;;;16.33;12.00;;;27.10;87.30;;;;;;5042494;28;20036;-68
2022/05/20 08:55:32;;;;;;;17.20;12.15;;;27.10;91.70;;;;;;5042784;28;20040;-68
2022/05/20 08:57:59;;;;;;;13.95;12.05;;;26.90;89.10;;;;;;5052191;28;20049;-69
2022/05/20 09:00:26;;;;;;;16.17;12.48;;;27.10;90.50;;;;;;5041782;28;20476;-68
2022/05/20 09:02:51;;;;;;;17.60;10.60;;;27.40;87.90;;;;;;5034123;28;20387;-68
2022/05/20 09:05:22;;;;;;;12.95;10.32;;;27.20;89.40;;;;;;5050145;28;20025;-68
2022/05/20 09:08:19;;;;;;;14.90;10.57;;;27.90;87.00;;;;;;5052279;28;20028;-68
2022/05/20 09:10:53;;;;;;;12.32;10.15;;;27.60;84.10;;;;;;5048906;28;20086;-68
2022/05/20 09:16:20;;;;;;;18.00;11.38;;;27.30;85.30;;;;;;5033327;28;20028;-69
2022/05/20 09:18:48;;;;;;;14.52;12.60;;;26.90;90.40;;;;;;5039849;28;20017;-69
2022/05/20 09:21:25;;;;;;;17.33;12.70;;;26.40;89.80;;;;;;5053568;28;20448;-69
2022/05/20 09:23:54;;;;;;;19.55;14.20;;;26.40;90.60;;;;;;5052150;28;20393;-69
2022/05/20 09:26:25;;;;;;;16.75;13.35;;;26.60;89.00;;;;;;5046249;28;20033;-69
2022/05/20 09:28:59;;;;;;;16.40;13.60;;;27.20;89.60;;;;;;5032195;28;20026;-69
2022/05/20 09:31:39;;;;;;;16.55;14.70;;;26.80;90.30;;;;;;5044842;28;20032;-69
2022/05/20 09:37:19;;;;;;;16.55;14.85;;;25.60;92.70;;;;;;5110552;27;20141;-68
2022/05/20 09:39:48;;;;;;;19.77;15.25;;;25.90;94.00;;;;;;5111711;28;20036;-68
2022/05/20 09:44:58;;;;;;;20.42;16.70;;;26.10;95.40;;;;;;5131340;27;20419;-68
2022/05/20 09:47:50;;;;;;;19.75;16.30;;;26.30;96.20;;;;;;5113907;27;20027;-69
2022/05/20 09:50:38;;;;;;;21.20;17.70;;;25.70;95.70;;;;;;5110949;28;20019;-69
2022/05/20 09:53:32;;;;;;;21.00;18.63;;;25.90;98.50;;;;;;5109611;28;20024;-69
2022/05/20 09:56:17;;;;;;;25.52;19.85;;;25.90;95.50;;;;;;5110003;28;20089;-69
2022/05/20 09:59:08;;;;;;;21.75;19.25;;;25.30;98.10;;;;;;5109919;28;20390;-69
2022/05/20 10:01:34;;;;;;;22.35;18.63;;;25.20;99.70;;;;;;5109619;28;20028;-69
2022/05/20 10:04:04;;;;;;;26.85;19.70;;;25.30;98.60;;;;;;5110455;28;20024;-69
2022/05/20 10:06:51;;;;;;;21.63;19.40;;;26.10;97.00;;;;;;5107508;28;20393;-70
2022/05/20 10:12:06;;;;;;;23.13;18.90;;;26.70;95.10;;;;;;5099652;27;20344;-69
2022/05/20 10:14:43;;;;;;;20.52;17.92;;;26.90;95.30;;;;;;5089375;28;20557;-69
2022/05/20 10:17:25;;;;;;;21.02;18.80;;;27.50;96.10;;;;;;5088621;28;20073;-68
2022/05/20 10:19:58;;;;;;;24.17;21.30;;;27.30;93.10;;;;;;5090414;28;20028;-69
2022/05/20 10:22:52;;;;;;;28.40;22.88;;;26.40;95.10;;;;;;5089490;28;20032;-69
2022/05/20 10:25:41;;;;;;;26.05;23.20;;;26.20;95.30;;;;;;5090321;28;20564;-68
2022/05/20 10:34:17;;;;;;;30.33;25.00;;;26.30;98.50;;;;;;5069809;28;20047;-68
2022/05/20 10:37:15;;;;;;;32.70;25.67;;;26.40;98.30;;;;;;5087169;28;20099;-69
2022/05/20 10:40:21;;;;;;;33.67;25.35;;;26.30;96.50;;;;;;5089928;28;20435;-68
2022/05/20 10:43:16;;;;;;;30.88;24.60;;;26.10;98.30;;;;;;5088842;28;20036;-68
2022/05/20 10:49:12;;;;;;;33.22;27.13;;;26.80;96.90;;;;;;5088903;28;20029;-68
2022/05/20 10:55:09;;;;;;;35.40;27.73;;;25.50;99.70;;;;;;5068548;28;20377;-69
2022/05/20 10:58:01;;;;;;;37.92;30.70;;;25.50;99.90;;;;;;5069190;28;20020;-70
2022/05/20 11:00:44;;;;;;;35.42;26.67;;;25.90;99.90;;;;;;5039242;28;20028;-70
2022/05/20 11:03:37;;;;;;;34.90;26.65;;;26.40;99.50;;;;;;5043213;28;20067;-71
2022/05/20 11:06:21;;;;;;;29.67;23.70;;;26.30;99.00;;;;;;5030685;28;20057;-69
2022/05/20 11:09:11;;;;;;;27.55;23.05;;;26.20;99.90;;;;;;5037015;28;20597;-70
2022/05/20 11:12:00;;;;;;;36.53;26.33;;;26.90;99.90;;;;;;5049362;28;20028;-69
2022/05/20 11:15:06;;;;;;;36.40;26.20;;;27.10;98.70;;;;;;5049393;28;20468;-69
2022/05/20 11:18:01;;;;;;;37.15;26.48;;;27.10;98.90;;;;;;5047024;28;20022;-69
2022/05/20 11:21:07;;;;;;;36.63;27.25;;;26.90;99.90;;;;;;5038426;28;20033;-69
2022/05/20 11:24:12;;;;;;;33.38;25.48;;;26.20;99.90;;;;;;5032752;28;20453;-69
2022/05/20 11:27:17;;;;;;;36.03;28.48;;;26.30;99.90;;;;;;5049813;28;20399;-69
2022/05/20 11:30:16;;;;;;;33.40;26.70;;;26.30;99.90;;;;;;5043309;28;20119;-69
2022/05/20 11:35:50;;;;;;;39.13;30.10;;;26.30;99.90;;;;;;5090557;28;20353;-69
2022/05/20 11:38:43;;;;;;;36.47;27.40;;;26.20;99.90;;;;;;5090360;28;20095;-69
2022/05/20 11:41:28;;;;;;;40.22;28.40;;;26.30;99.90;;;;;;5090576;28;20087;-69
2022/05/20 11:44:06;;;;;;;36.13;27.05;;;26.30;99.90;;;;;;5078219;28;20037;-69
2022/05/20 11:47:00;;;;;;;37.58;29.50;;;26.20;99.90;;;;;;5068907;28;20120;-69
2022/05/20 11:50:05;;;;;;;39.83;30.58;;;26.30;99.90;;;;;;5070779;28;20020;-69
2022/05/20 11:52:57;;;;;;;33.95;25.90;;;26.10;99.90;;;;;;5077287;28;20110;-69
2022/05/20 11:55:36;;;;;;;43.03;31.50;;;26.40;99.90;;;;;;5069956;28;20040;-69
2022/05/20 11:58:06;;;;;;;40.75;29.35;;;25.80;99.90;;;;;;5080498;28;20028;-69
2022/05/20 12:00:37;;;;;;;37.75;27.45;;;25.50;99.90;;;;;;5074194;28;20033;-69
2022/05/20 12:03:07;;;;;;;35.95;27.30;;;25.70;99.90;;;;;;5069861;28;20024;-69
2022/05/20 12:05:39;;;;;;;40.35;28.73;;;25.80;99.90;;;;;;5069822;28;20021;-69
2022/05/20 12:08:05;;;;;;;38.80;29.53;;;25.60;99.90;;;;;;5086284;28;20024;-69
2022/05/20 12:13:18;;;;;;;40.08;29.33;;;25.30;99.90;;;;;;5081810;27;20884;-69
2022/05/20 12:15:47;;;;;;;42.28;30.45;;;25.50;99.90;;;;;;5076959;28;20167;-69
2022/05/20 12:24:30;;;;;;;34.33;26.52;;;26.20;99.90;;;;;;5069693;28;20037;-69
2022/05/20 12:26:57;;;;;;;38.83;26.27;;;26.30;99.90;;;;;;5069273;28;20103;-69
2022/05/20 12:29:43;;;;;;;37.83;27.35;;;26.30;99.90;;;;;;5069129;28;20828;-67
2022/05/20 12:35:04;;;;;;;38.58;31.20;;;26.00;99.90;;;;;;5109099;27;20917;-69
2022/05/20 12:37:52;;;;;;;40.13;29.25;;;25.40;99.90;;;;;;5093944;28;20032;-69
2022/05/20 12:40:38;;;;;;;37.55;29.00;;;25.50;99.90;;;;;;5084620;28;20032;-69
2022/05/20 12:43:08;;;;;;;37.95;25.83;;;25.70;99.90;;;;;;5091619;28;20027;-69
2022/05/20 12:45:56;;;;;;;43.10;32.72;;;26.10;99.90;;;;;;5089327;28;20052;-69
2022/05/20 12:48:25;;;;;;;47.08;31.67;;;26.00;99.90;;;;;;5089890;28;20020;-69
2022/05/20 12:51:02;;;;;;;40.53;31.95;;;25.90;99.90;;;;;;5089441;28;20025;-69
2022/05/20 12:53:30;;;;;;;43.58;32.75;;;26.40;99.90;;;;;;5089366;28;20024;-69
2022/05/20 12:55:56;;;;;;;41.28;32.15;;;26.20;99.90;;;;;;5088536;28;20026;-69
2022/05/20 12:58:27;;;;;;;41.55;32.53;;;25.60;99.90;;;;;;5089305;28;20027;-69
2022/05/20 13:00:55;;;;;;;45.85;32.13;;;25.30;99.90;;;;;;5090123;28;20082;-69
2022/05/20 13:03:41;;;;;;;41.05;29.55;;;25.10;99.90;;;;;;5088288;28;20490;-69
2022/05/20 13:06:18;;;;;;;39.97;28.80;;;24.80;99.90;;;;;;5088908;28;20478;-69
2022/05/20 13:08:48;;;;;;;46.10;34.67;;;24.60;99.90;;;;;;5089904;28;20075;-69
2022/05/20 13:11:16;;;;;;;45.67;33.97;;;24.50;99.90;;;;;;5088830;28;20028;-69
2022/05/20 13:13:42;;;;;;;42.00;31.90;;;24.30;99.90;;;;;;5071759;28;20040;-69
2022/05/20 13:16:11;;;;;;;40.42;31.27;;;24.30;99.90;;;;;;5090108;28;20016;-69
2022/05/20 13:18:41;;;;;;;51.67;36.30;;;24.40;99.90;;;;;;5089875;28;20029;-69
2022/05/20 13:21:15;;;;;;;45.47;33.97;;;24.20;99.90;;;;;;5089436;28;20371;-69
2022/05/20 13:23:44;;;;;;;41.92;33.15;;;23.90;99.90;;;;;;5090097;28;20020;-69
2022/05/20 13:26:23;;;;;;;46.75;35.85;;;24.00;99.90;;;;;;5088592;28;20224;-69
2022/05/20 13:28:50;;;;;;;42.45;32.95;;;23.80;99.90;;;;;;5090075;28;20032;-69
2022/05/20 13:31:23;;;;;;;52.10;35.65;;;23.90;99.90;;;;;;5089947;28;20398;-69
2022/05/20 13:33:49;;;;;;;52.63;37.72;;;23.60;99.90;;;;;;5089430;28;20051;-69
2022/05/20 13:36:19;;;;;;;51.05;39.40;;;23.50;99.90;;;;;;5089689;28;20025;-69
2022/05/20 13:38:51;;;;;;;56.72;37.95;;;23.10;99.90;;;;;;5089675;28;20466;-69
2022/05/20 13:41:21;;;;;;;50.05;38.05;;;22.90;99.90;;;;;;5089730;28;20020;-69
2022/05/20 13:43:46;;;;;;;57.65;41.10;;;22.90;99.90;;;;;;5089503;28;20028;-69
2022/05/20 13:49:20;;;;;;;53.47;38.58;;;22.70;99.90;;;;;;5075771;28;20060;-69
2022/05/20 13:51:58;;;;;;;53.22;38.28;;;22.60;99.90;;;;;;5075966;28;20032;-69
2022/05/20 13:54:37;;;;;;;50.33;37.40;;;22.60;99.90;;;;;;5074841;28;20403;-68